Terminal Aerodrome Forecast
Issued by NWS Wilmington, OH

Current Version | Previous Version | Graphics & Text | Print | Product List | Glossary On
Versions: 1 2 3 4 5 6 7 8 9 10 11 12 13 14 15 16 17 18
000
FTUS41 KILN 240700 AAA
TAFCMH
TAF AMD
KCMH 240723Z 2407/2506 14008KT P6SM BKN009 OVC080
     FM240900 15007KT P6SM BKN012
      TEMPO 2409/2411 SCT012 OVC080
     FM241300 15007KT P6SM VCSH OVC018
     FM241700 18012KT 5SM BR VCSH SCT015 OVC022
     FM242100 21017G25KT P6SM -SHRA OVC015
     FM250000 24025G40KT P6SM OVC015
     FM250400 24018G28KT P6SM OVC015=

USA.gov is the U.S. government's official web portal to all federal, state and local government web resources and services.